Terminal Aerodrome Forecast
Issued by NWS

Home | Current Version | Previous Version | Text Only | Print | Product List | Glossary Off
Versions: 1 2 3 4 5 6 7 8 9 10 11 12 13 14 15 16 17 18

000
FTUS42 KMHX 191700
TAFOAJ
TAF
KOAJ 191725Z 1918/2018 36005KT P6SM SKC
     FM200500 03002KT P6SM SCT040 BKN100
     FM201400 04005KT P6SM SCT015 OVC035
      AMD LTD TO CLD VIS AND WIND=

USA.gov is the U.S. government's official web portal to all federal, state and local government web resources and services.